createdAt,value
2022-10-03T00:00:16.485Z,94709.56
2022-10-03T00:03:14.350Z,94722.03
2022-10-03T00:05:51.817Z,94719.56
2022-10-03T00:08:22.215Z,94724.97
2022-10-03T00:10:57.412Z,94727.44
2022-10-03T00:13:27.008Z,94730.34
2022-10-03T00:16:02.259Z,94735.75
2022-10-03T00:18:35.846Z,94738.44
2022-10-03T00:21:26.733Z,94734.91
2022-10-03T00:24:00.160Z,94736.81
2022-10-03T00:26:31.997Z,94741.16
2022-10-03T00:29:17.901Z,94738.44
2022-10-03T00:31:48.827Z,94752.75
2022-10-03T00:34:22.397Z,94746.53
2022-10-03T00:36:51.957Z,94750.03
2022-10-03T00:39:29.451Z,94745.72
2022-10-03T00:42:13.564Z,94743.84
2022-10-03T00:44:52.273Z,94752.75
2022-10-03T00:47:27.525Z,94749.25
2022-10-03T00:50:08.412Z,94741.16
2022-10-03T00:53:01.360Z,94741.16
2022-10-03T00:55:35.603Z,94734.09
2022-10-03T00:58:16.384Z,94741.94
2022-10-03T01:00:46.135Z,94747.59
2022-10-03T01:03:22.774Z,94740.31
2022-10-03T01:05:56.637Z,94739.50
2022-10-03T01:08:35.212Z,94748.41
2022-10-03T01:11:07.172Z,94744.06
2022-10-03T01:13:43.011Z,94747.59
2022-10-03T01:16:16.043Z,94756.50
2022-10-03T01:18:52.264Z,94757.34
2022-10-03T01:21:23.716Z,94762.94
2022-10-03T01:24:13.224Z,94768.13
2022-10-03T01:26:53.828Z,94773.53
2022-10-03T01:29:43.435Z,94776.44
2022-10-03T01:32:13.657Z,94778.09
2022-10-03T01:34:43.587Z,94778.91
2022-10-03T01:37:12.700Z,94783.47
2022-10-03T01:39:43.551Z,94777.28
2022-10-03T01:42:13.522Z,94780.78
2022-10-03T01:44:54.014Z,94788.06
2022-10-03T01:47:26.388Z,94793.47
2022-10-03T01:49:57.298Z,94788.06
2022-10-03T01:52:26.604Z,94788.88
2022-10-03T01:54:58.046Z,94798.03
2022-10-03T01:57:28.553Z,94802.38
2022-10-03T01:59:59.307Z,94793.47
2022-10-03T02:02:31.235Z,94803.19
2022-10-03T02:05:03.362Z,94796.97
2022-10-03T02:07:32.032Z,94795.09
2022-10-03T02:10:04.823Z,94798.84
2022-10-03T02:12:35.023Z,94803.19
2022-10-03T02:15:14.291Z,94804.25
2022-10-03T02:17:47.529Z,94803.19
2022-10-03T02:20:23.633Z,94800.50
2022-10-03T02:22:53.225Z,94800.50
2022-10-03T02:25:25.175Z,94804.25
2022-10-03T02:28:30.488Z,94805.06
2022-10-03T02:31:26.552Z,94803.41
2022-10-03T02:34:23.053Z,94806.13
2022-10-03T02:37:06.185Z,94810.72
2022-10-03T02:40:02.499Z,94799.66
2022-10-03T02:42:52.810Z,94804.25
2022-10-03T02:45:44.372Z,94810.47
2022-10-03T02:48:31.867Z,94818.56
2022-10-03T02:51:17.933Z,94815.84
2022-10-03T02:54:15.250Z,94817.75
2022-10-03T02:56:57.466Z,94823.13
2022-10-03T02:59:50.304Z,94824.19
2022-10-03T03:02:48.825Z,94822.31
2022-10-03T03:05:31.130Z,94825.00
2022-10-03T03:08:24.433Z,94829.59
2022-10-03T03:11:08.081Z,94832.28
2022-10-03T03:13:51.124Z,94836.63
2022-10-03T03:16:44.118Z,94837.69
2022-10-03T03:19:18.395Z,94840.38
2022-10-03T03:21:52.542Z,94844.72
2022-10-03T03:24:56.676Z,94841.19
2022-10-03T03:27:31.267Z,94846.59
2022-10-03T03:30:02.209Z,94848.47
2022-10-03T03:32:38.053Z,94849.28
2022-10-03T03:35:10.465Z,94853.88
2022-10-03T03:37:43.631Z,94861.97
2022-10-03T03:40:27.750Z,94854.69
2022-10-03T03:43:14.530Z,94851.97
2022-10-03T03:45:47.443Z,94862.78
2022-10-03T03:48:31.347Z,94861.97
2022-10-03T03:51:07.948Z,94863.63
2022-10-03T03:53:49.123Z,94859.28
2022-10-03T03:56:30.555Z,94868.16
2022-10-03T03:59:03.606Z,94860.31
2022-10-03T04:01:40.865Z,94864.66
2022-10-03T04:04:16.773Z,94866.53
2022-10-03T04:06:56.096Z,94865.72
2022-10-03T04:09:40.881Z,94863.03
2022-10-03T04:12:10.949Z,94853.88
2022-10-03T04:14:46.214Z,94852.22
2022-10-03T04:17:37.567Z,94847.63
2022-10-03T04:20:13.485Z,94850.34
2022-10-03T04:22:52.918Z,94844.94
2022-10-03T04:25:28.806Z,94852.22
2022-10-03T04:28:14.198Z,94844.94
2022-10-03T04:30:47.369Z,94841.44
2022-10-03T04:33:25.408Z,94844.13
2022-10-03T04:36:33.809Z,94837.91
2022-10-03T04:39:06.422Z,94847.63
2022-10-03T04:41:43.084Z,94845.78
2022-10-03T04:44:19.541Z,94850.59
2022-10-03T04:46:50.863Z,94842.50
2022-10-03T04:49:21.625Z,94835.19
2022-10-03T04:51:55.807Z,94840.59
2022-10-03T04:54:28.069Z,94834.41
2022-10-03T04:57:01.369Z,94831.44
2022-10-03T04:59:36.141Z,94837.09
2022-10-03T05:02:05.501Z,94836.25
2022-10-03T05:04:35.145Z,94841.44
2022-10-03T05:07:08.230Z,94836.03
2022-10-03T05:09:40.638Z,94846.84
2022-10-03T05:12:13.758Z,94841.44
2022-10-03T05:14:53.343Z,94847.63
2022-10-03T05:17:23.503Z,94844.13
2022-10-03T05:19:58.246Z,94847.88
2022-10-03T05:22:41.789Z,94853.28
2022-10-03T05:25:21.717Z,94860.31
2022-10-03T05:27:53.135Z,94859.50
2022-10-03T05:30:22.153Z,94859.50
2022-10-03T05:32:52.388Z,94865.72
2022-10-03T05:35:25.378Z,94864.88
2022-10-03T05:38:00.975Z,94877.56
2022-10-03T05:40:29.419Z,94873.81
2022-10-03T05:43:04.118Z,94880.00
2022-10-03T05:45:36.114Z,94875.69
2022-10-03T05:48:13.334Z,94886.47
2022-10-03T05:50:50.664Z,94885.66
2022-10-03T05:53:31.724Z,94889.16
2022-10-03T05:56:05.878Z,94893.50
2022-10-03T05:58:57.786Z,94900.78
2022-10-03T06:01:34.832Z,94899.16
2022-10-03T06:04:09.211Z,94907.25
2022-10-03T06:06:46.213Z,94914.50
2022-10-03T06:09:36.618Z,94909.09
2022-10-03T06:12:10.062Z,94915.34
2022-10-03T06:14:57.862Z,94920.72
2022-10-03T06:17:32.781Z,94922.59
2022-10-03T06:20:03.797Z,94917.19
2022-10-03T06:23:05.795Z,94924.25
2022-10-03T06:26:09.557Z,94927.97
2022-10-03T06:28:52.942Z,94925.28
2022-10-03T06:31:50.483Z,94932.56
2022-10-03T06:34:36.130Z,94939.84
2022-10-03T06:37:19.660Z,94936.91
2022-10-03T06:40:12.248Z,94944.16
2022-10-03T06:43:06.569Z,94951.22
2022-10-03T06:45:50.991Z,94952.28
2022-10-03T06:48:50.954Z,94954.97
2022-10-03T06:51:40.247Z,94949.56
2022-10-03T06:54:17.645Z,94951.47
2022-10-03T06:57:10.511Z,94954.16
2022-10-03T07:00:02.058Z,94962.25
2022-10-03T07:02:57.352Z,94956.84
2022-10-03T07:05:51.232Z,94967.66
2022-10-03T07:09:06.263Z,94963.28
2022-10-03T07:11:43.450Z,94964.13
2022-10-03T07:14:28.365Z,94964.13
2022-10-03T07:17:11.642Z,94964.94
2022-10-03T07:20:01.041Z,94966.59
2022-10-03T07:23:06.326Z,94972.00
2022-10-03T07:26:00.602Z,94967.66
2022-10-03T07:28:50.483Z,94970.94
2022-10-03T07:31:23.964Z,94974.69
2022-10-03T07:34:25.575Z,94978.19
2022-10-03T07:37:22.908Z,94982.53
2022-10-03T07:40:06.561Z,94980.09
2022-10-03T07:43:03.418Z,94975.50
2022-10-03T07:45:39.387Z,94983.59
2022-10-03T07:48:17.295Z,94985.25
2022-10-03T07:51:09.517Z,94990.63
2022-10-03T07:54:06.402Z,94993.34
2022-10-03T07:56:55.985Z,94997.69
2022-10-03T07:59:52.428Z,94990.63
2022-10-03T08:02:33.588Z,94996.03
2022-10-03T08:05:11.356Z,94996.03
2022-10-03T08:07:52.278Z,94996.03
2022-10-03T08:10:30.613Z,94987.13
2022-10-03T08:13:09.082Z,94993.34
2022-10-03T08:15:45.287Z,95007.66
2022-10-03T08:18:48.940Z,94996.03
2022-10-03T08:21:20.452Z,95003.06
2022-10-03T08:24:10.817Z,95005.78
2022-10-03T08:26:46.785Z,95006.81
2022-10-03T08:29:48.314Z,95012.81
2022-10-03T08:32:32.789Z,95022.78
2022-10-03T08:35:18.987Z,95014.69
2022-10-03T08:38:07.773Z,95012.81
2022-10-03T08:41:13.003Z,95005.56
2022-10-03T08:44:06.097Z,95011.75
2022-10-03T08:47:01.458Z,95004.28
2022-10-03T08:49:42.661Z,95004.28
2022-10-03T08:52:22.930Z,95010.50
2022-10-03T08:54:58.802Z,95008.38
2022-10-03T08:57:54.098Z,95000.06
2022-10-03T09:00:22.032Z,95001.94
2022-10-03T09:03:35.283Z,95000.88
2022-10-03T09:07:12.178Z,94999.88
2022-10-03T09:09:50.425Z,94999.63
2022-10-03T09:12:35.764Z,94997.75
2022-10-03T09:15:21.776Z,94993.75
2022-10-03T09:18:00.784Z,94991.91
2022-10-03T09:20:56.249Z,94988.97
2022-10-03T09:23:45.757Z,94991.22
2022-10-03T09:26:24.672Z,94998.84
2022-10-03T09:29:07.181Z,94995.94
2022-10-03T09:31:51.330Z,94992.41
2022-10-03T09:34:30.329Z,94994.06
2022-10-03T09:37:34.384Z,94996.53
2022-10-03T09:40:16.968Z,95002.53
2022-10-03T09:43:29.420Z,95005.22
2022-10-03T09:46:46.343Z,94997.94
2022-10-03T09:49:29.848Z,94993.38
2022-10-03T09:52:08.145Z,94995.84
2022-10-03T09:54:55.149Z,94999.38
2022-10-03T09:57:50.412Z,94989.41
2022-10-03T10:00:23.132Z,94993.97
2022-10-03T10:03:24.663Z,94994.56
2022-10-03T10:06:25.013Z,94989.16
2022-10-03T10:09:35.013Z,94988.94
2022-10-03T10:12:35.195Z,94996.00
2022-10-03T10:15:38.720Z,94991.44
2022-10-03T10:18:18.434Z,94987.66
2022-10-03T10:21:35.882Z,94983.91
2022-10-03T10:24:24.628Z,94992.03
2022-10-03T10:27:10.834Z,94989.06
2022-10-03T10:29:53.301Z,94990.97
2022-10-03T10:33:09.090Z,94976.41
2022-10-03T10:35:51.827Z,94989.91
2022-10-03T10:38:37.493Z,94988.00
2022-10-03T10:41:43.422Z,94978.06
2022-10-03T10:44:41.409Z,94974.28
2022-10-03T10:47:14.345Z,94968.06
2022-10-03T10:50:07.490Z,94973.25
2022-10-03T10:53:13.038Z,94976.78
2022-10-03T10:56:17.918Z,94976.78
2022-10-03T10:59:30.200Z,94975.72
2022-10-03T11:02:37.976Z,94972.19
2022-10-03T11:05:42.355Z,94972.19
2022-10-03T11:08:30.912Z,94970.31
2022-10-03T11:11:46.504Z,94962.22
2022-10-03T11:14:31.241Z,94961.97
2022-10-03T11:17:25.037Z,94960.13
2022-10-03T11:20:30.195Z,94963.63
2022-10-03T11:23:22.595Z,94963.41
2022-10-03T11:26:07.966Z,94963.19
2022-10-03T11:28:53.645Z,94950.50
2022-10-03T11:31:41.799Z,94963.78
2022-10-03T11:34:44.288Z,94955.69
2022-10-03T11:37:30.923Z,94962.72
2022-10-03T11:40:05.604Z,94961.66
2022-10-03T11:42:41.025Z,94968.13
2022-10-03T11:45:16.118Z,94962.72
2022-10-03T11:47:47.022Z,94963.78
2022-10-03T11:50:36.392Z,94963.78
2022-10-03T11:53:17.593Z,94969.97
2022-10-03T11:55:51.378Z,94959.19
2022-10-03T11:58:34.957Z,94963.78
2022-10-03T12:01:16.681Z,94964.59
2022-10-03T12:03:47.205Z,94963.78
2022-10-03T12:06:33.761Z,94961.06
2022-10-03T12:09:06.440Z,94961.06
2022-10-03T12:11:37.903Z,94956.72
2022-10-03T12:14:14.699Z,94955.69
2022-10-03T12:16:51.832Z,94954.63
2022-10-03T12:19:23.913Z,94954.63
2022-10-03T12:21:54.733Z,94950.03
2022-10-03T12:24:25.721Z,94941.13
2022-10-03T12:26:59.177Z,94945.47
2022-10-03T12:29:27.532Z,94940.88
2022-10-03T12:32:26.485Z,94939.00
2022-10-03T12:35:00.462Z,94930.06
2022-10-03T12:37:42.342Z,94930.69
2022-10-03T12:40:16.198Z,94936.09
2022-10-03T12:42:48.353Z,94931.50
2022-10-03T12:45:22.633Z,94933.38
2022-10-03T12:47:59.576Z,94927.97
2022-10-03T12:50:46.948Z,94928.78
2022-10-03T12:53:23.777Z,94930.91
2022-10-03T12:55:59.766Z,94924.66
2022-10-03T12:58:32.113Z,94928.19
2022-10-03T13:01:03.446Z,94934.44
2022-10-03T13:03:38.504Z,94932.56
2022-10-03T13:06:33.884Z,94929.84
2022-10-03T13:09:16.424Z,94922.59
2022-10-03T13:11:53.373Z,94927.72
2022-10-03T13:14:28.450Z,94925.03
2022-10-03T13:17:00.922Z,94926.09
2022-10-03T13:19:29.833Z,94934.19
2022-10-03T13:22:03.918Z,94933.38
2022-10-03T13:24:34.339Z,94929.84
2022-10-03T13:27:06.795Z,94932.56
2022-10-03T13:29:40.395Z,94931.75
2022-10-03T13:32:12.324Z,94930.69
2022-10-03T13:34:50.808Z,94916.56
2022-10-03T13:37:22.048Z,94921.16
2022-10-03T13:39:50.489Z,94918.47
2022-10-03T13:42:20.092Z,94908.72
2022-10-03T13:44:52.885Z,94914.91
2022-10-03T13:47:29.871Z,94901.41
2022-10-03T13:50:01.240Z,94910.34
2022-10-03T13:52:36.483Z,94909.53
2022-10-03T13:55:28.157Z,94904.38
2022-10-03T13:58:06.727Z,94900.63
2022-10-03T14:00:37.098Z,94900.63
2022-10-03T14:03:13.678Z,94898.72
2022-10-03T14:05:51.510Z,94902.47
2022-10-03T14:08:28.809Z,94903.31
2022-10-03T14:11:06.270Z,94903.31
2022-10-03T14:13:43.278Z,94903.31
2022-10-03T14:16:13.867Z,94905.19
2022-10-03T14:18:46.818Z,94891.09
2022-10-03T14:21:44.725Z,94900.84
2022-10-03T14:24:37.278Z,94892.72
2022-10-03T14:27:10.604Z,94890.88
2022-10-03T14:29:40.465Z,94900.03
2022-10-03T14:32:28.209Z,94893.78
2022-10-03T14:35:01.905Z,94897.31
2022-10-03T14:37:32.310Z,94895.69
2022-10-03T14:40:07.719Z,94891.94
2022-10-03T14:42:41.900Z,94889.22
2022-10-03T14:45:10.258Z,94881.94
2022-10-03T14:47:41.180Z,94883.81
2022-10-03T14:50:15.708Z,94883.81
2022-10-03T14:52:44.368Z,94885.69
2022-10-03T14:55:14.704Z,94882.19
2022-10-03T14:58:06.002Z,94874.31
2022-10-03T15:00:42.898Z,94875.13
2022-10-03T15:03:39.735Z,94884.25
2022-10-03T15:06:33.982Z,94883.47
2022-10-03T15:09:02.883Z,94883.47
2022-10-03T15:11:32.645Z,94874.53
2022-10-03T15:14:02.606Z,94871.81
2022-10-03T15:16:32.715Z,94865.63
2022-10-03T15:19:07.016Z,94862.91
2022-10-03T15:21:34.878Z,94864.78
2022-10-03T15:24:03.454Z,94863.97
2022-10-03T15:26:33.982Z,94857.75
2022-10-03T15:29:03.700Z,94860.44
2022-10-03T15:31:35.261Z,94860.44
2022-10-03T15:34:05.990Z,94857.75
2022-10-03T15:36:35.878Z,94849.88
2022-10-03T15:39:04.839Z,94855.28
2022-10-03T15:41:35.060Z,94861.50
2022-10-03T15:44:04.930Z,94859.84
2022-10-03T15:46:34.727Z,94862.56
2022-10-03T15:49:04.375Z,94865.25
2022-10-03T15:51:32.795Z,94864.44
2022-10-03T15:54:01.754Z,94870.66
2022-10-03T15:56:31.453Z,94867.94
2022-10-03T15:59:00.320Z,94863.59
2022-10-03T16:01:28.668Z,94855.50
2022-10-03T16:03:57.786Z,94861.75
2022-10-03T16:06:34.952Z,94859.03
2022-10-03T16:09:05.421Z,94869.00
2022-10-03T16:11:35.867Z,94867.16
2022-10-03T16:14:12.284Z,94861.75
2022-10-03T16:16:40.948Z,94855.50
2022-10-03T16:19:23.143Z,94853.66
2022-10-03T16:21:52.870Z,94854.44
2022-10-03T16:24:31.406Z,94863.13
2022-10-03T16:27:02.617Z,94865.84
2022-10-03T16:29:32.557Z,94862.06
2022-10-03T16:32:02.192Z,94866.41
2022-10-03T16:34:31.196Z,94872.44
2022-10-03T16:37:00.049Z,94868.69
2022-10-03T16:39:29.400Z,94871.97
2022-10-03T16:41:57.045Z,94867.16
2022-10-03T16:44:26.780Z,94873.97
2022-10-03T16:46:55.420Z,94869.38
2022-10-03T16:50:02.118Z,94873.13
2022-10-03T16:52:33.556Z,94873.97
2022-10-03T16:55:03.821Z,94865.63
2022-10-03T16:57:36.583Z,94865.16
2022-10-03T17:00:07.833Z,94868.69
2022-10-03T17:02:35.446Z,94870.56
2022-10-03T17:05:05.060Z,94867.63
2022-10-03T17:07:38.204Z,94873.25
2022-10-03T17:10:06.249Z,94881.34
2022-10-03T17:12:34.661Z,94879.72
2022-10-03T17:15:04.357Z,94877.00
2022-10-03T17:17:34.065Z,94887.00
2022-10-03T17:20:04.586Z,94885.38
2022-10-03T17:22:37.010Z,94891.56
2022-10-03T17:25:05.750Z,94883.72
2022-10-03T17:27:36.733Z,94882.88
2022-10-03T17:30:06.083Z,94888.53
2022-10-03T17:32:36.261Z,94889.56
2022-10-03T17:35:06.308Z,94882.50
2022-10-03T17:37:45.036Z,94886.28
2022-10-03T17:40:17.653Z,94893.09
2022-10-03T17:42:45.921Z,94885.59
2022-10-03T17:45:20.969Z,94883.84
2022-10-03T17:47:52.843Z,94881.06
2022-10-03T17:50:21.946Z,94890.69
2022-10-03T17:52:52.808Z,94882.25
2022-10-03T17:55:22.650Z,94887.53
2022-10-03T17:57:51.211Z,94885.53
2022-10-03T18:00:20.313Z,94888.94
2022-10-03T18:02:52.793Z,94899.38
2022-10-03T18:05:21.870Z,94892.22
2022-10-03T18:07:51.186Z,94892.09
2022-10-03T18:10:21.212Z,94894.94
2022-10-03T18:12:49.093Z,94897.97
2022-10-03T18:15:46.979Z,94892.44
2022-10-03T18:18:35.874Z,94897.97
2022-10-03T18:21:05.287Z,94900.75
2022-10-03T18:23:54.181Z,94898.41
2022-10-03T18:26:26.721Z,94904.97
2022-10-03T18:29:01.045Z,94899.91
2022-10-03T18:31:30.942Z,94907.56
2022-10-03T18:33:59.551Z,94903.56
2022-10-03T18:36:28.280Z,94900.63
2022-10-03T18:38:58.866Z,94906.63
2022-10-03T18:41:26.396Z,94899.91
2022-10-03T18:43:58.651Z,94894.28
2022-10-03T18:46:30.150Z,94900.84
2022-10-03T18:51:48.501Z,94887.88
2022-10-03T18:54:24.219Z,94898.00
2022-10-03T18:57:03.480Z,94896.13
2022-10-03T18:59:33.144Z,94898.34
2022-10-03T19:02:01.894Z,94899.97
2022-10-03T19:04:36.864Z,94901.88
2022-10-03T19:07:11.938Z,94903.75
2022-10-03T19:09:42.541Z,94899.97
2022-10-03T19:12:11.733Z,94894.09
2022-10-03T19:14:41.753Z,94896.00
2022-10-03T19:17:22.480Z,94902.69
2022-10-03T19:19:55.242Z,94897.19
2022-10-03T19:22:31.249Z,94893.31
2022-10-03T19:25:02.566Z,94891.06
2022-10-03T19:27:40.940Z,94884.50
2022-10-03T19:30:09.329Z,94898.50
2022-10-03T19:32:47.380Z,94886.97
2022-10-03T19:35:18.853Z,94886.88
2022-10-03T19:37:48.113Z,94881.34
2022-10-03T19:40:31.661Z,94883.97
2022-10-03T19:43:11.926Z,94881.75
2022-10-03T19:45:39.538Z,94880.56
2022-10-03T19:48:10.382Z,94880.22
2022-10-03T19:50:38.401Z,94889.63
2022-10-03T19:53:10.835Z,94882.78
2022-10-03T19:55:41.050Z,94882.22
2022-10-03T19:58:13.093Z,94874.59
2022-10-03T20:00:40.718Z,94874.00
2022-10-03T20:03:13.836Z,94872.59
2022-10-03T20:05:44.368Z,94871.19
2022-10-03T20:08:31.421Z,94874.13
2022-10-03T20:11:05.583Z,94873.56
2022-10-03T20:13:33.149Z,94866.72
2022-10-03T20:16:01.073Z,94871.56
2022-10-03T20:18:31.152Z,94862.88
2022-10-03T20:20:59.001Z,94869.56
2022-10-03T20:23:27.162Z,94869.78
2022-10-03T20:25:57.492Z,94869.19
2022-10-03T20:28:31.569Z,94870.03
2022-10-03T20:30:59.213Z,94868.63
2022-10-03T20:33:28.641Z,94864.50
2022-10-03T20:35:57.876Z,94864.50
2022-10-03T20:38:31.294Z,94862.03
2022-10-03T20:41:01.125Z,94864.16
2022-10-03T20:43:41.415Z,94864.16
2022-10-03T20:46:24.049Z,94867.09
2022-10-03T20:49:09.612Z,94864.63
2022-10-03T20:51:43.047Z,94863.81
2022-10-03T20:54:13.932Z,94864.88
2022-10-03T20:56:46.336Z,94864.03
2022-10-03T20:59:15.205Z,94866.97
2022-10-03T21:01:43.183Z,94862.63
2022-10-03T21:04:14.971Z,94866.38
2022-10-03T21:06:57.648Z,94871.78
2022-10-03T21:09:32.930Z,94869.31
2022-10-03T21:12:00.569Z,94857.69
2022-10-03T21:14:29.857Z,94861.44
2022-10-03T21:16:57.365Z,94860.63
2022-10-03T21:19:37.546Z,94866.03
2022-10-03T21:22:05.877Z,94864.41
2022-10-03T21:24:37.477Z,94858.16
2022-10-03T21:27:07.213Z,94860.06
2022-10-03T21:29:36.836Z,94851.13
2022-10-03T21:32:12.852Z,94849.47
2022-10-03T21:34:44.189Z,94847.84
2022-10-03T21:37:14.748Z,94842.66
2022-10-03T21:39:46.230Z,94840.78
2022-10-03T21:42:17.345Z,94845.34
2022-10-03T21:44:52.737Z,94838.09
2022-10-03T21:47:26.976Z,94845.59
2022-10-03T21:49:56.850Z,94835.84
2022-10-03T21:52:41.589Z,94839.38
2022-10-03T21:55:17.556Z,94840.44
2022-10-03T21:57:50.623Z,94836.09
2022-10-03T22:00:19.919Z,94832.53
2022-10-03T22:02:53.025Z,94820.94
2022-10-03T22:05:25.614Z,94817.41
2022-10-03T22:07:53.176Z,94814.69
2022-10-03T22:10:21.984Z,94810.34
2022-10-03T22:12:50.748Z,94810.34
2022-10-03T22:15:24.332Z,94806.00
2022-10-03T22:17:53.965Z,94803.31
2022-10-03T22:20:22.906Z,94795.22
2022-10-03T22:22:55.973Z,94799.81
2022-10-03T22:25:32.292Z,94792.75
2022-10-03T22:28:02.379Z,94798.16
2022-10-03T22:30:31.323Z,94793.56
2022-10-03T22:33:07.769Z,94791.13
2022-10-03T22:35:43.096Z,94784.88
2022-10-03T22:38:10.751Z,94778.66
2022-10-03T22:40:38.318Z,94768.66
2022-10-03T22:43:06.029Z,94776.78
2022-10-03T22:45:36.317Z,94781.34
2022-10-03T22:48:05.374Z,94775.13
2022-10-03T22:50:33.671Z,94777.84
2022-10-03T22:53:01.420Z,94773.50
2022-10-03T22:55:28.985Z,94776.19
2022-10-03T22:57:56.565Z,94781.78
2022-10-03T23:00:25.474Z,94775.59
2022-10-03T23:02:59.706Z,94772.03
2022-10-03T23:05:33.750Z,94772.88
2022-10-03T23:08:05.781Z,94764.78
2022-10-03T23:10:39.590Z,94766.66
2022-10-03T23:13:08.334Z,94764.78
2022-10-03T23:15:36.797Z,94762.06
2022-10-03T23:18:21.150Z,94759.59
2022-10-03T23:21:00.596Z,94762.31
2022-10-03T23:23:31.588Z,94757.97
2022-10-03T23:26:04.100Z,94754.19
2022-10-03T23:28:33.513Z,94754.19
2022-10-03T23:31:01.154Z,94746.31
2022-10-03T23:33:50.846Z,94740.13
2022-10-03T23:36:20.304Z,94747.16
2022-10-03T23:38:59.707Z,94744.69
2022-10-03T23:41:43.956Z,94743.88
2022-10-03T23:44:48.915Z,94745.75
2022-10-03T23:47:18.177Z,94748.44
2022-10-03T23:49:47.836Z,94751.16
2022-10-03T23:52:18.201Z,94750.09
2022-10-03T23:54:46.065Z,94744.69
2022-10-03T23:57:13.609Z,94731.44
2022-10-03T23:59:41.116Z,94729.53
